KRDK

Red Oak Municipal Airport

Red Oak, Iowa, USA
METAR KRDK 182135Z AUTO VRB04KT 10SM CLR 29/20 A3001 RMK AO2
Observed Flight Rules
Aug-18 @ 21:35 UTC (18 minutes ago) Visual Flight Rules
Wind Visibility Clouds
Variable at 4 knots 10 miles
  • Clear skies
Temperatures Readings
Current 29°C / 84°F
Dewpoint 20°C / 68°F
Humidity 58%
Altimeter 30.01" Hg
Pressure 1016 hPa
Elevation 318
METAR KRDK 182135Z AUTO VRB04KT 10SM CLR 29/20 A3001 RMK AO2
Observed Flight Rules
Aug-18 @ 21:35 UTC
(18 minutes ago)
VFR
Wind Visibility
Variable at 4 knots 10 miles
Clouds
  • Clear skies
Temperature Dewpoint
29°C / 84°F 20°C / 68°F
Humidity Altimeter Pressure
58% 30.01" Hg 1016 hPa